Time;durP1;ratioP1;P1;durP2;ratioP2;P2;SDS_P1;SDS_P2;PMS_P1;PMS_P2;Temp;Humidity;BMP_temperature;BMP_pressure;BME280_temperature;BME280_humidity;BME280_pressure;Samples;Min_cycle;Max_cycle;Signal;HPM_P1;HPM_P2
2022/12/27 00:01:29;;;;;;;2.07;1.30;;;;;;;9.08;92.10;98939.28;4174967;28;21023;-93
2022/12/27 00:03:32;;;;;;;1.40;1.10;;;;;;;9.05;92.83;98946.38;4144013;28;21217;-92
2022/12/27 00:05:35;;;;;;;1.77;1.30;;;;;;;9.01;92.35;98948.28;4157295;28;20252;-92
2022/12/27 00:07:38;;;;;;;2.93;1.00;;;;;;;8.97;91.59;98951.13;4167934;28;20657;-91
2022/12/27 00:09:41;;;;;;;5.07;1.70;;;;;;;8.96;91.39;98952.06;4183635;28;21311;-92
2022/12/27 00:11:44;;;;;;;2.70;1.50;;;;;;;8.97;91.42;98953.72;4159160;28;20230;-92
2022/12/27 00:13:49;;;;;;;2.60;1.00;;;;;;;8.90;91.31;98959.28;4155938;28;20637;-92
2022/12/27 00:15:52;;;;;;;1.93;1.40;;;;;;;8.86;90.87;98969.00;4153008;28;20629;-93
2022/12/27 00:17:55;;;;;;;6.47;1.73;;;;;;;8.84;91.63;98962.16;4143735;28;20634;-92
2022/12/27 00:19:58;;;;;;;2.10;1.20;;;;;;;8.82;90.75;98971.81;4167398;28;21215;-92
2022/12/27 00:22:07;;;;;;;1.67;1.27;;;;;;;8.79;89.37;98964.16;4140434;28;20207;-92
2022/12/27 00:24:11;;;;;;;2.28;1.08;;;;;;;8.64;86.02;98970.91;4143847;28;20646;-92
2022/12/27 00:26:16;;;;;;;2.58;0.98;;;;;;;8.56;85.19;98969.59;4171440;28;20599;-92
2022/12/27 00:28:19;;;;;;;2.63;1.00;;;;;;;8.45;84.85;98974.47;4158703;28;20238;-92
2022/12/27 00:30:23;;;;;;;1.85;0.93;;;;;;;8.37;84.62;98971.34;4165487;28;20659;-92
2022/12/27 00:32:27;;;;;;;4.75;1.40;;;;;;;8.23;82.81;98971.13;4187503;28;20213;-91
2022/12/27 00:34:30;;;;;;;2.53;0.95;;;;;;;8.15;83.11;98975.00;4174223;28;20202;-92
2022/12/27 00:36:33;;;;;;;1.58;1.02;;;;;;;8.15;82.55;98988.81;4187996;28;20707;-93
2022/12/27 00:38:36;;;;;;;1.40;0.85;;;;;;;8.10;81.88;98982.09;4170836;28;20691;-92
2022/12/27 00:40:39;;;;;;;1.70;0.63;;;;;;;8.00;81.72;98986.88;4170127;28;20202;-93
2022/12/27 00:42:43;;;;;;;4.78;0.90;;;;;;;7.93;80.80;98981.16;4170658;28;20345;-92
2022/12/27 00:44:46;;;;;;;1.90;0.90;;;;;;;7.88;80.73;98991.75;4173753;28;20496;-92
2022/12/27 00:46:51;;;;;;;1.73;1.02;;;;;;;7.84;79.34;98984.16;4141367;28;20714;-92
2022/12/27 00:48:54;;;;;;;3.45;0.93;;;;;;;7.76;78.89;98986.25;4143754;28;21007;-92
2022/12/27 00:51:01;;;;;;;2.45;1.10;;;;;;;7.69;77.95;99000.41;4142511;28;20260;-93
2022/12/27 00:53:04;;;;;;;1.70;0.90;;;;;;;7.64;78.71;98989.38;4154800;28;20212;-92
2022/12/27 00:55:08;;;;;;;2.00;0.70;;;;;;;7.64;79.07;98995.41;4145479;28;20212;-92
2022/12/27 00:57:12;;;;;;;1.25;0.70;;;;;;;7.61;78.29;99008.50;4172118;28;20207;-91
2022/12/27 00:59:15;;;;;;;2.47;0.98;;;;;;;7.56;77.75;99007.88;4160704;28;20237;-92
2022/12/27 01:01:19;;;;;;;1.33;0.80;;;;;;;7.55;76.82;99019.13;4145610;28;20210;-92
2022/12/27 01:03:24;;;;;;;1.77;0.65;;;;;;;7.49;78.02;99029.78;4157559;28;20844;-92
2022/12/27 01:05:27;;;;;;;2.67;1.00;;;;;;;7.47;76.60;99024.72;4174948;28;20213;-92
2022/12/27 01:07:30;;;;;;;1.15;0.70;;;;;;;7.42;76.92;99035.28;4172455;28;20206;-91
2022/12/27 01:09:34;;;;;;;0.95;0.80;;;;;;;7.36;77.81;99032.94;4141211;28;20235;-92
2022/12/27 01:11:37;;;;;;;5.57;1.10;;;;;;;7.32;76.43;99040.91;4159707;28;22568;-93
2022/12/27 01:13:39;;;;;;;1.80;0.82;;;;;;;7.29;77.51;99041.03;4172061;28;20214;-92
2022/12/27 01:15:43;;;;;;;2.78;0.70;;;;;;;7.31;76.97;99040.06;4165910;28;20281;-91
2022/12/27 01:17:46;;;;;;;1.85;0.90;;;;;;;7.28;75.50;99040.19;4168272;28;20213;-92
2022/12/27 01:19:50;;;;;;;2.95;0.70;;;;;;;7.19;75.95;99045.72;4150241;28;20674;-92
2022/12/27 01:21:53;;;;;;;1.60;0.80;;;;;;;7.15;76.50;99064.06;4169967;28;20297;-92
2022/12/27 01:23:57;;;;;;;2.63;0.90;;;;;;;7.09;77.48;99064.31;4145610;28;20199;-92
2022/12/27 01:26:01;;;;;;;1.75;0.90;;;;;;;7.07;77.90;99074.75;4160436;28;20260;-91
2022/12/27 01:28:05;;;;;;;1.35;0.88;;;;;;;7.04;77.47;99072.25;4175527;28;20283;-92
2022/12/27 01:30:09;;;;;;;1.73;1.05;;;;;;;7.05;77.54;99081.75;4153531;28;20217;-92
2022/12/27 01:32:12;;;;;;;2.35;0.90;;;;;;;7.05;76.93;99091.25;4157652;28;20210;-92
2022/12/27 01:34:15;;;;;;;2.20;0.93;;;;;;;7.03;77.62;99076.69;4158543;28;20263;-92
2022/12/27 01:36:21;;;;;;;3.58;0.80;;;;;;;7.03;77.94;99093.06;4158281;28;20212;-93
2022/12/27 01:38:24;;;;;;;1.73;0.80;;;;;;;7.04;77.40;99090.41;4143581;28;20219;-92
2022/12/27 01:40:29;;;;;;;4.53;0.85;;;;;;;7.04;77.56;99102.56;4176993;28;20347;-92
2022/12/27 01:44:56;;;;;;;1.35;0.80;;;;;;;7.01;78.76;99102.66;4193720;28;20205;-92
2022/12/27 01:46:59;;;;;;;3.03;1.02;;;;;;;6.98;77.27;99101.94;4157612;28;20209;-92
2022/12/27 01:49:02;;;;;;;1.33;0.70;;;;;;;6.98;77.98;99102.78;4176198;28;20222;-92
2022/12/27 01:51:07;;;;;;;3.70;0.98;;;;;;;6.96;77.60;99108.91;4156193;28;20679;-93
2022/12/27 01:53:13;;;;;;;2.97;0.88;;;;;;;6.93;77.42;99109.91;4176403;28;20461;-92
2022/12/27 01:55:20;;;;;;;0.90;0.50;;;;;;;6.92;78.07;99107.38;4158433;28;20210;-92
2022/12/27 01:57:24;;;;;;;1.70;0.98;;;;;;;6.90;77.45;99109.16;4145073;28;20202;-92
2022/12/27 01:59:27;;;;;;;1.80;0.68;;;;;;;6.87;78.86;99110.13;4139935;28;20225;-92
2022/12/27 02:01:32;;;;;;;4.15;0.93;;;;;;;6.83;79.04;99113.72;4177915;28;20194;-92
2022/12/27 02:03:40;;;;;;;1.58;0.90;;;;;;;6.81;79.17;99119.84;4144005;28;20212;-91
2022/12/27 02:05:43;;;;;;;3.35;0.88;;;;;;;6.78;78.85;99119.97;4158771;28;20640;-92
2022/12/27 02:07:57;;;;;;;2.25;0.70;;;;;;;6.74;79.55;99123.59;4141487;28;20215;-92
2022/12/27 02:10:02;;;;;;;1.35;0.80;;;;;;;6.73;79.22;99129.66;4156872;28;20277;-91
2022/12/27 02:12:07;;;;;;;1.83;0.80;;;;;;;6.70;79.79;99124.59;4190330;28;20201;-92
2022/12/27 02:14:11;;;;;;;3.35;1.05;;;;;;;6.68;79.97;99139.38;4143671;28;20300;-92
2022/12/27 02:16:16;;;;;;;3.70;1.10;;;;;;;6.69;78.75;99130.66;4160518;28;20674;-91
2022/12/27 02:18:19;;;;;;;2.25;0.93;;;;;;;6.69;79.71;99135.84;4175693;28;20849;-92
2022/12/27 02:20:24;;;;;;;2.47;1.00;;;;;;;6.65;78.88;99140.31;4145248;28;20206;-92
2022/12/27 02:25:53;;;;;;;1.95;0.90;;;;;;;6.52;79.56;99133.03;4115526;28;20236;-92
2022/12/27 02:28:04;;;;;;;2.38;0.85;;;;;;;6.50;80.20;99134.00;4188451;28;20594;-92
2022/12/27 02:30:11;;;;;;;4.63;1.05;;;;;;;6.41;79.23;99140.34;4142661;28;20228;-92
2022/12/27 02:32:19;;;;;;;2.55;0.70;;;;;;;6.37;79.09;99143.09;4175809;28;20218;-92
2022/12/27 02:34:26;;;;;;;2.10;0.95;;;;;;;6.25;79.21;99141.75;4139144;28;20282;-91
2022/12/27 02:36:31;;;;;;;3.85;1.23;;;;;;;6.20;79.90;99135.06;4157624;28;20297;-92
2022/12/27 02:38:37;;;;;;;1.00;0.70;;;;;;;6.11;80.30;99138.81;4158888;28;20257;-91
2022/12/27 02:55:12;;;;;;;3.10;0.90;;;;;;;5.77;80.48;99141.72;4190712;28;20687;-92
2022/12/27 02:57:22;;;;;;;2.10;1.17;;;;;;;5.71;81.08;99145.34;4149562;28;20202;-91
2022/12/27 02:59:36;;;;;;;3.63;1.02;;;;;;;5.67;81.35;99143.75;4161160;28;20825;-92
2022/12/27 03:04:21;;;;;;;2.92;1.25;;;;;;;5.51;82.22;99131.34;4169829;28;20204;-92
2022/12/27 03:06:39;;;;;;;4.45;1.25;;;;;;;5.44;83.18;99144.50;4176697;28;20230;-93
2022/12/27 03:08:46;;;;;;;3.40;1.65;;;;;;;5.42;83.02;99138.56;4169976;28;20236;-91
2022/12/27 03:15:56;;;;;;;2.15;1.05;;;;;;;5.50;83.51;99149.50;4157109;28;20547;-92
2022/12/27 03:18:06;;;;;;;1.65;1.10;;;;;;;5.43;83.21;99146.25;4139045;28;20213;-92
2022/12/27 03:27:17;;;;;;;3.20;1.50;;;;;;;5.31;84.20;99151.81;4160219;28;20603;-92
2022/12/27 03:34:30;;;;;;;2.15;1.10;;;;;;;5.49;84.33;99168.47;4155951;28;20240;-92
2022/12/27 03:38:58;;;;;;;3.78;1.10;;;;;;;5.55;85.00;99170.88;4186324;28;20331;-92
2022/12/27 03:43:23;;;;;;;3.20;1.05;;;;;;;5.60;85.77;99167.28;4182814;28;20212;-92
2022/12/27 03:47:53;;;;;;;2.92;1.20;;;;;;;5.67;86.38;99173.97;4158617;28;20666;-92
2022/12/27 03:50:04;;;;;;;3.65;1.40;;;;;;;5.74;86.92;99173.75;4152838;28;20223;-92
2022/12/27 03:52:10;;;;;;;2.40;1.35;;;;;;;5.81;86.77;99182.16;4169702;28;20202;-92
2022/12/27 03:54:17;;;;;;;2.35;1.30;;;;;;;5.81;86.35;99180.41;4148608;28;20215;-92
2022/12/27 03:56:20;;;;;;;3.80;1.42;;;;;;;5.84;86.84;99182.88;4159602;28;20209;-93
2022/12/27 03:58:23;;;;;;;2.13;1.50;;;;;;;5.86;86.39;99178.50;4155146;28;20212;-92
2022/12/27 04:00:27;;;;;;;4.53;1.20;;;;;;;5.81;85.40;99177.81;4139935;28;20255;-92
2022/12/27 04:02:30;;;;;;;2.15;1.25;;;;;;;5.72;85.78;99179.81;4158238;28;20274;-92
2022/12/27 04:04:33;;;;;;;2.85;1.27;;;;;;;5.68;86.48;99175.63;4188481;28;20201;-91
2022/12/27 04:06:37;;;;;;;2.45;1.15;;;;;;;5.59;86.29;99181.09;4144472;28;20207;-91
2022/12/27 04:34:44;;;;;;;2.65;1.35;;;;;;;5.56;88.61;99188.94;4158198;28;21002;-93
2022/12/27 04:36:47;;;;;;;2.30;1.05;;;;;;;5.54;88.55;99188.16;4188712;28;20239;-92
2022/12/27 04:38:52;;;;;;;3.10;1.17;;;;;;;5.60;89.28;99187.13;4172585;28;20264;-93
2022/12/27 04:55:15;;;;;;;3.83;1.70;;;;;;;5.77;88.77;99194.34;4188764;28;20194;-92
2022/12/27 04:57:18;;;;;;;2.33;1.13;;;;;;;5.78;88.39;99188.25;4135112;28;20226;-94
2022/12/27 05:04:08;;;;;;;5.40;1.45;;;;;;;5.90;88.85;99205.16;4148223;28;20639;-92
2022/12/27 05:06:11;;;;;;;2.95;1.30;;;;;;;5.91;88.04;99209.41;4142204;28;20223;-91
2022/12/27 05:15:19;;;;;;;4.05;1.30;;;;;;;5.79;87.88;99212.41;4152137;28;20705;-92
2022/12/27 05:17:22;;;;;;;3.15;1.38;;;;;;;5.64;88.09;99220.63;4154510;28;20749;-92
2022/12/27 05:19:25;;;;;;;2.20;1.42;;;;;;;5.58;88.36;99218.22;4174618;28;20228;-92
2022/12/27 05:21:29;;;;;;;3.95;1.10;;;;;;;5.54;88.60;99221.78;4157836;28;20282;-92
2022/12/27 05:25:54;;;;;;;3.05;1.30;;;;;;;5.45;88.60;99226.41;4177399;28;20206;-92
2022/12/27 05:27:57;;;;;;;3.50;1.58;;;;;;;5.38;88.59;99233.50;4162556;28;20211;-93
2022/12/27 05:30:00;;;;;;;1.92;1.50;;;;;;;5.34;88.04;99242.22;4166621;28;20240;-92
2022/12/27 05:32:04;;;;;;;2.05;1.38;;;;;;;5.30;88.86;99240.63;4166213;28;20751;-92
2022/12/27 05:34:14;;;;;;;2.63;2.05;;;;;;;5.30;88.92;99234.59;4154524;28;20257;-92
2022/12/27 05:36:18;;;;;;;4.80;1.60;;;;;;;5.32;89.17;99233.69;4183492;28;20293;-92
2022/12/27 05:38:21;;;;;;;4.18;1.58;;;;;;;5.29;88.75;99233.78;4157969;28;20298;-93
2022/12/27 05:40:25;;;;;;;3.28;1.77;;;;;;;5.28;89.15;99239.81;4157066;28;20196;-92
2022/12/27 05:42:30;;;;;;;5.03;2.28;;;;;;;5.28;88.51;99247.56;4141938;28;20205;-92
2022/12/27 05:44:33;;;;;;;2.75;1.70;;;;;;;5.20;88.83;99240.91;4172199;28;20264;-93
2022/12/27 05:46:36;;;;;;;4.45;1.80;;;;;;;5.19;88.39;99237.50;4154526;28;20203;-93
2022/12/27 05:48:39;;;;;;;2.70;2.00;;;;;;;5.12;88.45;99239.47;4135588;28;20555;-90
2022/12/27 05:50:44;;;;;;;3.38;2.00;;;;;;;4.98;88.49;99236.44;4172040;28;20831;-92
2022/12/27 05:52:47;;;;;;;4.25;2.00;;;;;;;4.94;88.82;99237.41;4157447;28;20592;-92
2022/12/27 05:54:50;;;;;;;5.00;2.13;;;;;;;4.91;89.39;99237.47;4154688;28;20222;-93
2022/12/27 05:56:54;;;;;;;5.93;2.13;;;;;;;4.84;88.45;99230.78;4155217;28;20274;-92
2022/12/27 05:58:58;;;;;;;3.15;2.50;;;;;;;4.79;88.69;99230.06;4154976;28;20205;-91
2022/12/27 06:01:08;;;;;;;4.90;2.47;;;;;;;4.75;88.92;99229.31;4137943;28;20201;-93
2022/12/27 06:03:11;;;;;;;4.40;2.25;;;;;;;4.76;89.47;99227.56;4157424;28;20198;-92
2022/12/27 06:05:14;;;;;;;3.63;2.10;;;;;;;4.71;89.49;99226.84;4143337;28;21620;-92
2022/12/27 06:07:17;;;;;;;5.53;2.30;;;;;;;4.69;89.96;99228.59;4137915;28;20207;-92
2022/12/27 06:09:21;;;;;;;6.90;2.13;;;;;;;4.67;89.31;99224.38;4142533;28;20222;-93
2022/12/27 06:11:24;;;;;;;3.00;2.10;;;;;;;4.61;90.33;99225.38;4174972;28;20227;-92
2022/12/27 06:13:27;;;;;;;2.88;2.25;;;;;;;4.60;90.28;99231.47;4146461;28;20231;-91
2022/12/27 06:15:32;;;;;;;3.10;2.10;;;;;;;4.57;90.27;99223.78;4144974;28;20212;-92
2022/12/27 06:17:35;;;;;;;2.38;1.92;;;;;;;4.55;90.28;99228.13;4173951;28;20254;-92
2022/12/27 06:19:38;;;;;;;4.45;2.13;;;;;;;4.51;90.15;99234.28;4156718;28;20207;-92
2022/12/27 06:21:41;;;;;;;6.72;2.90;;;;;;;4.49;89.91;99236.03;4175881;28;20202;-92
2022/12/27 06:23:45;;;;;;;9.38;2.65;;;;;;;4.43;89.91;99235.34;4171581;28;20202;-93
2022/12/27 06:25:48;;;;;;;5.43;2.90;;;;;;;4.42;89.76;99244.84;4141745;28;20239;-91
2022/12/27 06:27:51;;;;;;;10.15;4.18;;;;;;;4.41;89.77;99245.72;4173594;28;20265;-92
2022/12/27 06:29:54;;;;;;;12.75;4.60;;;;;;;4.41;89.98;99252.63;4173859;28;20264;-92
2022/12/27 06:31:59;;;;;;;23.02;7.10;;;;;;;4.38;89.81;99255.28;4169441;28;20234;-92
2022/12/27 06:34:02;;;;;;;17.63;6.75;;;;;;;4.40;90.90;99250.94;4170084;28;20674;-93
2022/12/27 06:36:06;;;;;;;7.90;3.95;;;;;;;4.41;89.99;99240.56;4158996;28;20235;-89
2022/12/27 06:38:09;;;;;;;6.50;3.70;;;;;;;4.40;89.36;99241.44;4154152;28;20231;-89
2022/12/27 06:40:12;;;;;;;12.13;4.47;;;;;;;4.38;90.93;99240.63;4142924;28;20252;-89
2022/12/27 06:42:15;;;;;;;8.13;4.05;;;;;;;4.42;91.79;99250.00;4159544;28;20208;-89
2022/12/27 06:44:18;;;;;;;11.55;5.55;;;;;;;4.45;90.87;99255.09;4136010;28;20604;-90
2022/12/27 06:46:23;;;;;;;17.92;11.80;;;;;;;4.46;90.60;99253.34;4155284;28;20258;-91
2022/12/27 06:48:28;;;;;;;19.73;12.00;;;;;;;4.43;90.27;99256.84;4156991;28;20302;-91
2022/12/27 06:50:31;;;;;;;48.65;28.95;;;;;;;4.43;90.90;99256.84;4140631;28;20220;-89
2022/12/27 06:52:34;;;;;;;20.75;11.55;;;;;;;4.43;90.92;99259.44;4160000;28;20223;-90
2022/12/27 06:54:37;;;;;;;51.83;23.30;;;;;;;4.40;90.43;99259.50;4187027;28;20300;-88
2022/12/27 06:56:40;;;;;;;40.20;25.45;;;;;;;4.38;91.06;99253.56;4186863;28;20280;-88
2022/12/27 06:58:43;;;;;;;30.13;15.35;;;;;;;4.37;90.30;99259.59;4165538;28;20211;-88
2022/12/27 07:00:46;;;;;;;30.38;14.93;;;;;;;4.35;90.61;99261.38;4143083;28;20977;-88
2022/12/27 07:02:50;;;;;;;18.10;7.45;;;;;;;4.30;90.18;99264.94;4156944;28;20206;-89
2022/12/27 07:04:54;;;;;;;14.23;6.00;;;;;;;4.33;91.81;99265.75;4158973;28;20211;-89
2022/12/27 07:06:57;;;;;;;24.10;10.25;;;;;;;4.36;91.22;99264.78;4144003;28;20211;-89
2022/12/27 07:09:00;;;;;;;26.30;10.80;;;;;;;4.37;90.39;99261.34;4166096;28;20239;-89
2022/12/27 07:11:06;;;;;;;18.77;7.72;;;;;;;4.38;90.23;99268.22;4149114;28;20196;-88
2022/12/27 07:13:09;;;;;;;16.38;4.90;;;;;;;4.42;90.42;99270.66;4153598;28;20313;-88
2022/12/27 07:15:12;;;;;;;6.22;3.25;;;;;;;4.51;90.25;99280.78;4160325;28;20207;-88
2022/12/27 07:17:15;;;;;;;10.90;5.15;;;;;;;4.56;90.40;99281.50;4142353;28;20214;-89
2022/12/27 07:19:18;;;;;;;19.92;8.77;;;;;;;4.56;89.97;99278.91;4162560;28;20675;-88
2022/12/27 07:21:24;;;;;;;21.40;10.05;;;;;;;4.48;90.41;99283.44;4159923;28;20754;-88
2022/12/27 07:23:27;;;;;;;12.07;6.30;;;;;;;4.44;89.80;99288.72;4145287;28;20275;-88
2022/12/27 07:25:30;;;;;;;14.77;4.32;;;;;;;4.33;89.10;99288.09;4151832;28;20249;-87
2022/12/27 07:27:33;;;;;;;11.43;5.47;;;;;;;4.20;89.03;99287.56;4155600;28;20226;-86
2022/12/27 07:29:37;;;;;;;9.85;5.63;;;;;;;4.19;89.77;99285.03;4174662;28;20202;-91
2022/12/27 07:31:47;;;;;;;17.42;6.45;;;;;;;4.23;88.72;99284.91;4141274;28;22670;-88
2022/12/27 07:33:51;;;;;;;12.70;6.13;;;;;;;4.24;89.86;99281.44;4184525;28;20205;-87
2022/12/27 07:35:58;;;;;;;16.45;7.70;;;;;;;4.29;90.18;99286.50;4154836;28;20205;-89
2022/12/27 07:38:02;;;;;;;13.82;7.10;;;;;;;4.32;91.29;99284.69;4153879;28;20202;-87
2022/12/27 07:40:07;;;;;;;14.65;7.78;;;;;;;4.39;91.61;99290.53;4173853;28;20293;-88
2022/12/27 07:42:10;;;;;;;11.55;6.00;;;;;;;4.46;90.69;99292.09;4156269;28;20269;-87
2022/12/27 07:44:13;;;;;;;16.65;8.05;;;;;;;4.44;91.39;99286.97;4169377;28;20234;-87
2022/12/27 07:46:18;;;;;;;15.40;10.43;;;;;;;4.44;90.85;99289.53;4138266;28;20250;-87
2022/12/27 07:48:21;;;;;;;21.70;13.48;;;;;;;4.41;90.29;99299.13;4152833;28;20251;-89
2022/12/27 07:50:24;;;;;;;20.60;12.73;;;;;;;4.37;90.04;99290.56;4171827;28;20198;-88
2022/12/27 07:52:29;;;;;;;31.25;16.50;;;;;;;4.35;89.29;99294.94;4152742;28;20222;-88
2022/12/27 07:54:33;;;;;;;22.90;13.25;;;;;;;4.34;90.43;99298.38;4172912;28;20201;-88
2022/12/27 07:56:36;;;;;;;23.95;13.27;;;;;;;4.35;90.04;99292.34;4154571;28;20864;-88
2022/12/27 07:58:41;;;;;;;24.58;13.05;;;;;;;4.38;90.41;99284.53;4155642;28;20207;-88
2022/12/27 08:00:44;;;;;;;38.60;17.85;;;;;;;4.41;91.01;99288.78;4157492;28;20257;-88
2022/12/27 08:02:47;;;;;;;74.60;30.83;;;;;;;4.48;90.59;99290.31;4174513;28;20298;-88
2022/12/27 08:04:54;;;;;;;42.47;18.83;;;;;;;4.53;90.78;99291.91;4164495;28;20209;-89
2022/12/27 08:07:01;;;;;;;70.90;32.20;;;;;;;4.62;91.93;99291.66;4157429;28;20212;-88
2022/12/27 08:09:06;;;;;;;55.08;26.02;;;;;;;4.66;91.15;99290.72;4149767;28;20231;-88
2022/12/27 08:11:11;;;;;;;45.40;23.00;;;;;;;4.71;90.50;99296.59;4156635;28;20223;-89
2022/12/27 08:13:14;;;;;;;53.67;27.63;;;;;;;4.80;90.19;99292.03;4152901;28;20330;-89
2022/12/27 08:15:18;;;;;;;72.30;32.65;;;;;;;4.85;90.50;99294.50;4187898;28;20256;-88
2022/12/27 08:17:22;;;;;;;37.97;19.95;;;;;;;4.98;91.09;99293.28;4159319;28;20206;-88
2022/12/27 08:19:26;;;;;;;148.95;61.47;;;;;;;5.13;90.75;99304.88;4187115;28;20587;-89
2022/12/27 08:21:30;;;;;;;82.25;38.67;;;;;;;5.28;89.91;99301.03;4144084;28;20571;-89
2022/12/27 08:23:33;;;;;;;49.40;24.15;;;;;;;5.43;90.35;99310.97;4157503;28;20195;-89
2022/12/27 08:25:36;;;;;;;34.80;19.20;;;;;;;5.51;90.16;99317.59;4157593;28;20211;-89
2022/12/27 08:27:40;;;;;;;39.55;20.00;;;;;;;5.61;89.11;99316.44;4152255;28;20209;-89
2022/12/27 08:29:45;;;;;;;44.38;20.45;;;;;;;5.68;89.42;99311.03;4164831;28;20203;-90
2022/12/27 08:31:48;;;;;;;53.05;27.67;;;;;;;5.73;88.74;99313.50;4154874;28;20319;-90
2022/12/27 08:33:51;;;;;;;85.90;47.28;;;;;;;5.76;88.84;99323.78;4153439;28;20933;-89
2022/12/27 08:36:04;;;;;;;64.00;34.03;;;;;;;5.71;88.61;99323.03;4152563;28;20207;-90
2022/12/27 08:38:27;;;;;;;84.53;37.65;;;;;;;5.70;89.26;99324.78;4162772;28;20254;-90
2022/12/27 08:40:30;;;;;;;55.50;26.23;;;;;;;5.69;88.93;99322.22;4140486;28;20245;-90
2022/12/27 08:42:33;;;;;;;28.25;15.40;;;;;;;5.69;88.91;99322.22;4159708;28;20195;-90
2022/12/27 08:44:37;;;;;;;22.42;11.27;;;;;;;5.83;88.84;99320.09;4156304;28;20693;-90
2022/12/27 08:46:40;;;;;;;17.98;8.90;;;;;;;5.99;89.02;99326.53;4169198;28;20689;-89
2022/12/27 08:48:43;;;;;;;26.50;11.27;;;;;;;6.13;89.98;99331.25;4134575;28;20770;-91
2022/12/27 08:50:46;;;;;;;8.73;4.90;;;;;;;6.26;88.45;99332.53;4150740;28;20218;-90
2022/12/27 08:52:49;;;;;;;7.50;4.10;;;;;;;6.25;88.51;99328.22;4152286;28;20301;-89
2022/12/27 08:54:52;;;;;;;7.53;4.05;;;;;;;6.17;87.71;99332.81;4155507;28;20215;-90
2022/12/27 08:56:55;;;;;;;7.95;4.25;;;;;;;6.22;88.77;99341.31;4155564;28;20204;-89
2022/12/27 08:58:59;;;;;;;6.57;4.05;;;;;;;6.29;88.11;99341.97;4159853;28;20213;-90
2022/12/27 09:01:06;;;;;;;4.50;3.60;;;;;;;6.29;87.53;99341.97;4159279;28;20216;-89
2022/12/27 09:03:10;;;;;;;6.90;3.40;;;;;;;6.28;88.05;99335.06;4158620;28;20669;-89
2022/12/27 09:05:14;;;;;;;6.10;4.28;;;;;;;6.31;88.97;99334.97;4153975;28;20212;-89
2022/12/27 09:07:17;;;;;;;5.30;3.10;;;;;;;6.28;88.26;99328.13;4156825;28;20712;-89
2022/12/27 09:09:20;;;;;;;4.65;3.47;;;;;;;6.38;88.14;99326.97;4155859;28;20310;-89
2022/12/27 09:11:25;;;;;;;5.90;3.90;;;;;;;6.56;88.07;99345.34;4155652;28;20217;-89
2022/12/27 09:13:28;;;;;;;5.90;3.97;;;;;;;6.71;87.78;99338.84;4148548;28;20323;-88
2022/12/27 09:15:31;;;;;;;9.48;5.07;;;;;;;6.84;87.49;99345.28;4144340;28;20205;-89
2022/12/27 09:17:36;;;;;;;8.77;4.90;;;;;;;6.89;87.53;99352.03;4155297;28;20293;-88
2022/12/27 09:19:39;;;;;;;16.02;11.10;;;;;;;6.97;87.96;99349.16;4167178;28;20224;-88
2022/12/27 09:21:42;;;;;;;14.10;7.82;;;;;;;7.03;87.35;99348.97;4148253;28;20837;-87
2022/12/27 09:23:46;;;;;;;18.85;10.80;;;;;;;7.09;86.26;99357.38;4158807;28;20254;-87
2022/12/27 09:25:50;;;;;;;21.95;12.52;;;;;;;7.10;87.18;99364.25;4151283;28;20230;-88
2022/12/27 09:27:54;;;;;;;18.02;11.18;;;;;;;7.13;88.21;99359.81;4156605;28;20210;-89
2022/12/27 09:29:56;;;;;;;22.75;11.13;;;;;;;7.14;87.88;99363.22;4160970;28;20208;-88
2022/12/27 09:32:00;;;;;;;18.10;10.48;;;;;;;7.09;86.83;99359.97;4161111;28;20656;-89
2022/12/27 09:34:04;;;;;;;15.98;8.73;;;;;;;7.08;86.97;99359.13;4157345;28;20323;-88
2022/12/27 09:36:09;;;;;;;12.07;6.07;;;;;;;7.05;86.77;99359.22;4156330;28;20318;-88
2022/12/27 09:38:13;;;;;;;11.63;7.18;;;;;;;7.12;87.41;99365.03;4157411;28;20205;-87
2022/12/27 09:40:17;;;;;;;14.13;7.75;;;;;;;7.25;87.09;99367.16;4172386;28;20239;-88
2022/12/27 09:42:30;;;;;;;11.45;8.00;;;;;;;7.44;87.88;99367.34;4154670;28;20201;-88
2022/12/27 09:44:57;;;;;;;9.82;6.05;;;;;;;7.59;86.12;99378.03;4160764;28;20279;-88
2022/12/27 09:47:04;;;;;;;8.25;5.15;;;;;;;7.55;86.40;99372.13;4161174;28;20208;-88
2022/12/27 09:49:10;;;;;;;7.35;5.15;;;;;;;7.50;86.16;99373.16;4155115;28;20209;-88
2022/12/27 09:51:18;;;;;;;5.97;3.90;;;;;;;7.57;85.99;99370.31;4155857;28;20202;-88
2022/12/27 09:53:24;;;;;;;5.70;3.47;;;;;;;7.62;86.17;99373.59;4162349;28;20222;-87
2022/12/27 09:55:36;;;;;;;6.43;3.88;;;;;;;7.64;84.60;99369.19;4144560;28;20254;-88
2022/12/27 09:57:41;;;;;;;15.73;8.48;;;;;;;7.78;86.39;99368.69;4161599;28;20217;-88
2022/12/27 09:59:47;;;;;;;15.32;11.68;;;;;;;7.91;85.12;99372.50;4165347;28;20297;-88
2022/12/27 10:01:50;;;;;;;8.65;5.93;;;;;;;7.99;84.99;99366.97;4156004;28;20257;-87
2022/12/27 10:03:53;;;;;;;11.55;8.68;;;;;;;8.07;85.07;99364.94;4143880;28;20216;-87
2022/12/27 10:06:15;;;;;;;16.52;12.02;;;;;;;8.10;85.74;99367.44;4146686;28;20215;-87
2022/12/27 10:08:28;;;;;;;13.40;8.90;;;;;;;8.21;87.23;99367.91;4163488;28;20352;-87
2022/12/27 10:10:41;;;;;;;14.05;7.25;;;;;;;8.30;86.73;99370.13;4192182;28;20318;-88
2022/12/27 10:13:03;;;;;;;10.63;7.50;;;;;;;8.32;85.77;99365.72;4157223;28;20202;-88
2022/12/27 10:15:19;;;;;;;9.90;6.60;;;;;;;8.34;85.38;99365.66;4159156;28;20207;-89
2022/12/27 10:17:32;;;;;;;10.73;6.13;;;;;;;8.39;85.20;99367.19;4172063;28;20213;-88
2022/12/27 10:19:43;;;;;;;11.60;5.10;;;;;;;8.46;84.48;99371.22;4162714;28;20275;-88
2022/12/27 10:21:58;;;;;;;8.93;5.60;;;;;;;8.51;83.54;99358.91;4159120;28;20300;-88
2022/12/27 10:24:07;;;;;;;18.75;9.77;;;;;;;8.53;82.50;99355.31;4142690;28;20268;-88
2022/12/27 10:26:13;;;;;;;8.70;4.53;;;;;;;8.60;82.53;99350.69;4142624;28;20222;-88
2022/12/27 10:28:18;;;;;;;11.02;7.57;;;;;;;8.67;80.77;99344.34;4153386;28;20198;-88
2022/12/27 10:30:22;;;;;;;10.02;4.70;;;;;;;8.71;81.69;99346.78;4157974;28;20206;-88
2022/12/27 10:32:26;;;;;;;11.65;7.70;;;;;;;8.76;80.96;99343.97;4140598;28;20216;-88
2022/12/27 10:34:29;;;;;;;9.52;5.90;;;;;;;8.82;81.14;99352.38;4162863;28;20718;-88
2022/12/27 10:36:32;;;;;;;12.60;7.85;;;;;;;8.86;81.37;99347.91;4144841;28;20610;-88
2022/12/27 10:38:37;;;;;;;10.43;6.78;;;;;;;8.92;80.89;99345.06;4156392;28;20211;-87
2022/12/27 10:40:49;;;;;;;10.23;5.97;;;;;;;8.92;80.51;99346.72;4154254;28;20276;-88
2022/12/27 10:43:02;;;;;;;7.63;5.40;;;;;;;8.99;80.64;99342.97;4158391;28;20285;-87
2022/12/27 10:45:27;;;;;;;9.93;5.10;;;;;;;9.04;81.29;99350.59;4147045;28;20206;-87
2022/12/27 10:47:31;;;;;;;6.00;3.55;;;;;;;9.00;79.20;99357.66;4162939;28;20202;-88
2022/12/27 10:49:34;;;;;;;4.47;2.65;;;;;;;8.96;77.21;99353.50;4156867;28;20214;-87
2022/12/27 10:51:39;;;;;;;7.33;3.37;;;;;;;9.01;78.38;99348.94;4161691;28;20199;-88
2022/12/27 10:53:57;;;;;;;6.78;3.35;;;;;;;8.97;79.78;99346.53;4155331;28;20619;-87
2022/12/27 10:56:13;;;;;;;7.05;3.50;;;;;;;9.05;79.65;99347.91;4160652;28;20234;-88
2022/12/27 10:58:21;;;;;;;2.55;1.95;;;;;;;9.07;78.99;99345.25;4162761;28;20650;-88
2022/12/27 11:00:24;;;;;;;6.22;2.70;;;;;;;9.18;79.69;99341.25;4158136;28;20203;-88
2022/12/27 11:02:28;;;;;;;4.55;2.17;;;;;;;9.29;78.89;99344.28;4157489;28;20269;-87
2022/12/27 11:04:31;;;;;;;3.05;1.90;;;;;;;9.36;77.66;99340.47;4154976;28;20639;-88
2022/12/27 11:06:34;;;;;;;3.53;1.87;;;;;;;9.25;77.95;99347.91;4156050;28;20248;-88
2022/12/27 11:08:37;;;;;;;5.38;2.30;;;;;;;9.26;78.63;99343.53;4157459;28;20657;-88
2022/12/27 11:10:42;;;;;;;2.92;1.40;;;;;;;9.17;76.89;99341.31;4174659;28;20220;-87
2022/12/27 11:12:56;;;;;;;5.43;2.03;;;;;;;9.06;78.14;99351.34;4145809;28;20204;-88
2022/12/27 11:15:01;;;;;;;3.30;1.92;;;;;;;9.14;78.62;99349.25;4158199;28;21274;-88
2022/12/27 11:17:08;;;;;;;6.05;1.90;;;;;;;9.16;78.48;99342.25;4156371;28;20638;-88
2022/12/27 11:19:21;;;;;;;4.05;1.70;;;;;;;9.21;78.34;99343.75;4154487;28;20557;-88
2022/12/27 11:21:26;;;;;;;4.63;2.20;;;;;;;9.28;78.08;99329.56;4170577;28;20289;-88
2022/12/27 11:23:35;;;;;;;2.87;1.60;;;;;;;9.42;77.85;99335.00;4158817;28;20624;-88
2022/12/27 11:25:50;;;;;;;3.08;1.90;;;;;;;9.49;78.20;99332.06;4158178;28;20633;-88
2022/12/27 11:27:56;;;;;;;1.95;1.40;;;;;;;9.48;77.51;99330.34;4156934;28;20237;-88
2022/12/27 11:29:59;;;;;;;7.67;2.10;;;;;;;9.51;78.05;99335.44;4162156;28;20582;-87
2022/12/27 11:32:06;;;;;;;2.53;1.30;;;;;;;9.47;75.44;99333.91;4139910;28;20624;-87
2022/12/27 11:34:15;;;;;;;5.73;1.70;;;;;;;9.47;75.79;99331.28;4186271;28;20209;-87